ZA8K weather

CLOSED Mostovskoy Airfield
Mostovskoy, Krasnodar Krai, Russia

Public forecast

Using degrees Celsius for public forecast. Weather courtesy of forecast.io.

Closest aviation weather report (METAR) to Mostovskoy Airfield

Report is more than 6 hours old.

Closest report is Maykop Airport, 34.8 nm (64.4 km) WNW. Retrieved 2013/05/20 12:00 UTC (7 years ago):

URKM 201200Z 08007G12MPS CAVOK 27/04 Q1015 RMK QFE743

Closest aviation forecast (TAF) to Mostovskoy Airfield

Forecast is more than 12 hours old.

Closest forecast is Maykop Airport, 34.8 nm (64.4 km) WNW. Retrieved 2010/03/21 17:00 UTC (10 years ago):

TAF TAF URKM 211700Z 2115/2203 VRB02MPS 9999 SCT030